Terminal Aerodrome Forecast
Issued by NWS Louisville, KY

Home | Current Version | Previous Version | Text Only | Print | Product List | Glossary On
Versions: 1 2 3 4 5 6 7 8 9 10 11 12 13 14 15 16 17 18 19 20 21 22
135
FTUS43 KLMK 180949 AAA
TAFLEX
TAF AMD
KLEX 180949Z 1810/1906 29004KT P6SM SCT030
      TEMPO 1811/1813 5SM BR
     FM181300 12009KT P6SM SCT250=

USA.gov is the U.S. government's official web portal to all federal, state and local government web resources and services.